Time;durP1;ratioP1;P1;durP2;ratioP2;P2;SDS_P1;SDS_P2;PMS_P1;PMS_P2;Temp;Humidity;BMP_temperature;BMP_pressure;BME280_temperature;BME280_humidity;BME280_pressure;Samples;Min_cycle;Max_cycle;Signal;HPM_P1;HPM_P2
2022/09/10 00:02:06;;;;;;;9.70;8.80;;;14.80;99.90;;;;;;5091346;28;20043;-74
2022/09/10 00:04:32;;;;;;;10.48;9.50;;;14.70;99.90;;;;;;5072491;28;20097;-74
2022/09/10 00:06:58;;;;;;;10.25;9.25;;;14.80;99.90;;;;;;5085469;28;20119;-74
2022/09/10 00:09:23;;;;;;;10.85;9.90;;;14.80;99.90;;;;;;5090442;28;20090;-74
2022/09/10 00:11:49;;;;;;;10.63;9.63;;;14.80;99.90;;;;;;5088999;28;20032;-75
2022/09/10 00:14:18;;;;;;;10.38;9.43;;;14.80;99.90;;;;;;5070262;28;20032;-74
2022/09/10 00:16:44;;;;;;;11.13;10.23;;;14.80;99.90;;;;;;5088359;28;20039;-74
2022/09/10 00:19:11;;;;;;;11.40;10.13;;;14.80;99.90;;;;;;5089448;28;20051;-75
2022/09/10 00:21:37;;;;;;;10.27;9.27;;;14.80;99.90;;;;;;5085368;28;20036;-74
2022/09/10 00:24:04;;;;;;;10.73;9.63;;;14.80;99.90;;;;;;5089016;28;20044;-73
2022/09/10 00:26:38;;;;;;;11.33;10.23;;;14.80;99.90;;;;;;5084280;28;20051;-73
2022/09/10 00:29:05;;;;;;;11.43;10.10;;;14.80;99.90;;;;;;5090904;28;20101;-72
2022/09/10 00:31:32;;;;;;;10.00;9.13;;;14.70;99.90;;;;;;5087635;28;20036;-72
2022/09/10 00:33:59;;;;;;;13.43;10.40;;;14.80;99.90;;;;;;5088214;28;20376;-74
2022/09/10 00:36:27;;;;;;;10.53;9.53;;;14.70;99.90;;;;;;5097599;28;20078;-74
2022/09/10 00:38:57;;;;;;;10.85;9.75;;;14.70;99.90;;;;;;5072421;28;20036;-74
2022/09/10 00:41:23;;;;;;;12.80;10.32;;;14.80;99.90;;;;;;5087825;28;20044;-74
2022/09/10 00:43:55;;;;;;;11.52;10.30;;;14.80;99.90;;;;;;5069985;28;20198;-74
2022/09/10 00:46:34;;;;;;;11.95;10.75;;;14.80;99.90;;;;;;5088200;28;20076;-74
2022/09/10 00:49:04;;;;;;;12.18;10.95;;;14.80;99.90;;;;;;5087369;28;20048;-74
2022/09/10 00:51:33;;;;;;;12.43;11.20;;;14.90;99.90;;;;;;5094531;28;20055;-74
2022/09/10 00:54:01;;;;;;;11.52;10.30;;;14.80;99.90;;;;;;5076823;28;20041;-74
2022/09/10 00:56:27;;;;;;;10.77;9.75;;;14.90;99.90;;;;;;5093365;28;20398;-74
2022/09/10 00:58:53;;;;;;;14.95;10.38;;;14.80;99.90;;;;;;5096992;28;20044;-74
2022/09/10 01:01:19;;;;;;;12.38;11.13;;;14.90;99.90;;;;;;5092375;28;20050;-73
2022/09/10 01:03:46;;;;;;;11.70;10.13;;;14.90;99.90;;;;;;5088715;28;20036;-73
2022/09/10 01:06:12;;;;;;;11.57;10.40;;;14.90;99.90;;;;;;5090813;28;20032;-73
2022/09/10 01:08:37;;;;;;;11.63;10.52;;;14.90;99.90;;;;;;5070950;28;20044;-73
2022/09/10 01:11:32;;;;;;;12.88;11.70;;;14.90;99.90;;;;;;5083972;28;20476;-73
2022/09/10 01:14:04;;;;;;;12.85;10.10;;;14.80;99.90;;;;;;5070710;28;20128;-73
2022/09/10 01:16:46;;;;;;;13.63;10.68;;;14.90;99.90;;;;;;5073097;28;20055;-73
2022/09/10 01:19:56;;;;;;;11.23;10.00;;;14.90;99.90;;;;;;5085314;28;20044;-73
2022/09/10 01:22:32;;;;;;;12.57;11.38;;;14.90;99.90;;;;;;5056112;28;20498;-73
2022/09/10 01:25:21;;;;;;;14.20;11.15;;;15.00;99.90;;;;;;5089236;28;20115;-73
2022/09/10 01:27:51;;;;;;;11.43;10.43;;;15.00;99.90;;;;;;5088208;28;20433;-73
2022/09/10 01:30:21;;;;;;;11.48;10.25;;;15.00;99.90;;;;;;5088267;28;20040;-74
2022/09/10 01:33:04;;;;;;;13.40;11.18;;;15.00;99.90;;;;;;5064218;28;20131;-73
2022/09/10 01:35:44;;;;;;;12.23;10.95;;;15.00;99.90;;;;;;5083998;28;20043;-74
2022/09/10 01:38:34;;;;;;;12.45;11.32;;;15.10;99.90;;;;;;5085820;28;20036;-74
2022/09/10 01:41:01;;;;;;;11.57;10.38;;;15.00;99.90;;;;;;5080673;28;20047;-74
2022/09/10 01:43:27;;;;;;;12.40;11.15;;;15.00;99.90;;;;;;5084322;28;20051;-72
2022/09/10 01:46:14;;;;;;;13.02;11.60;;;15.00;99.90;;;;;;5086957;28;20094;-72
2022/09/10 01:48:54;;;;;;;15.65;10.80;;;15.10;99.90;;;;;;5093141;28;20109;-73
2022/09/10 01:51:41;;;;;;;12.52;10.93;;;15.10;99.90;;;;;;5087906;28;20080;-73
2022/09/10 01:54:25;;;;;;;12.60;10.75;;;15.10;99.90;;;;;;5084845;28;20364;-72
2022/09/10 01:57:06;;;;;;;12.90;11.63;;;15.10;99.90;;;;;;5088695;28;20044;-72
2022/09/10 01:59:35;;;;;;;12.75;11.55;;;15.10;99.90;;;;;;5090716;28;20040;-72
2022/09/10 02:02:08;;;;;;;12.90;11.32;;;15.10;99.90;;;;;;5066716;28;20471;-72
2022/09/10 02:04:35;;;;;;;13.07;11.77;;;15.10;99.90;;;;;;5068242;28;20047;-73
2022/09/10 02:07:04;;;;;;;15.53;13.07;;;15.10;99.90;;;;;;5087941;28;20537;-73
2022/09/10 02:09:31;;;;;;;14.52;12.90;;;15.10;99.90;;;;;;5085766;28;20055;-75
2022/09/10 02:11:57;;;;;;;14.57;13.05;;;15.10;99.90;;;;;;5065864;28;20085;-73
2022/09/10 02:14:23;;;;;;;20.50;12.77;;;15.10;99.90;;;;;;5089879;28;20039;-73
2022/09/10 02:16:57;;;;;;;14.73;12.30;;;15.10;99.90;;;;;;5086550;28;20039;-73
2022/09/10 02:19:27;;;;;;;15.40;12.30;;;15.20;99.90;;;;;;5084348;28;20508;-73
2022/09/10 02:21:55;;;;;;;13.77;11.98;;;15.20;99.90;;;;;;5084478;28;20382;-75
2022/09/10 02:24:21;;;;;;;13.48;11.52;;;15.20;99.90;;;;;;5090921;28;20066;-72
2022/09/10 02:26:48;;;;;;;15.15;11.68;;;15.10;99.90;;;;;;5104992;28;20508;-73
2022/09/10 02:29:15;;;;;;;14.68;11.25;;;15.20;99.90;;;;;;5090280;28;20040;-73
2022/09/10 02:31:42;;;;;;;14.60;10.95;;;15.20;99.90;;;;;;5090422;28;20402;-75
2022/09/10 02:34:09;;;;;;;12.30;11.00;;;15.10;99.90;;;;;;5091239;28;20166;-74
2022/09/10 02:36:35;;;;;;;14.57;11.15;;;15.10;99.90;;;;;;5068870;28;20954;-74
2022/09/10 02:39:03;;;;;;;13.63;10.80;;;15.20;99.90;;;;;;5073331;28;20044;-74
2022/09/10 02:41:32;;;;;;;;;;;15.10;99.90;;;;;;5085069;28;20437;-75
2022/09/10 02:44:00;;;;;;;11.57;9.95;;;15.20;99.90;;;;;;5082262;28;19963;-75
2022/09/10 02:46:27;;;;;;;12.38;10.32;;;15.20;99.90;;;;;;5085912;28;20035;-74
2022/09/10 02:48:54;;;;;;;11.13;10.02;;;15.20;99.90;;;;;;5087956;28;20072;-74
2022/09/10 02:51:22;;;;;;;13.40;10.00;;;15.20;99.90;;;;;;5053131;28;20048;-74
2022/09/10 02:53:48;;;;;;;18.90;11.35;;;15.20;99.90;;;;;;5087141;28;20503;-75
2022/09/10 02:56:15;;;;;;;13.98;11.80;;;15.20;99.90;;;;;;5092418;28;20054;-74
2022/09/10 02:58:40;;;;;;;15.65;12.07;;;15.20;99.90;;;;;;5095526;28;20047;-74
2022/09/10 03:01:13;;;;;;;17.25;12.82;;;15.20;99.90;;;;;;5091245;28;20044;-75
2022/09/10 03:03:40;;;;;;;15.70;12.05;;;15.20;99.90;;;;;;5089754;28;20054;-75
2022/09/10 03:06:06;;;;;;;14.60;11.98;;;15.20;99.90;;;;;;5094591;28;20493;-75
2022/09/10 03:08:32;;;;;;;15.73;13.05;;;15.20;99.90;;;;;;5094755;28;20043;-75
2022/09/10 03:10:58;;;;;;;14.60;13.00;;;15.20;99.90;;;;;;5077685;28;20422;-74
2022/09/10 03:13:27;;;;;;;13.85;11.68;;;15.20;99.90;;;;;;5059893;28;20043;-74
2022/09/10 03:15:55;;;;;;;17.25;13.00;;;15.20;99.90;;;;;;5091957;28;20101;-75
2022/09/10 03:18:22;;;;;;;15.68;11.55;;;15.20;99.90;;;;;;5077359;28;20044;-75
2022/09/10 03:20:48;;;;;;;15.30;11.98;;;15.20;99.90;;;;;;5089622;28;20474;-74
2022/09/10 03:23:14;;;;;;;13.30;11.50;;;15.20;99.90;;;;;;5092852;28;20043;-74
2022/09/10 03:25:40;;;;;;;15.32;11.20;;;15.20;99.90;;;;;;5089185;28;20417;-74
2022/09/10 03:28:05;;;;;;;19.10;12.32;;;15.20;99.90;;;;;;5087980;28;20050;-74
2022/09/10 03:30:32;;;;;;;13.82;11.48;;;15.20;99.90;;;;;;5090429;28;20081;-74
2022/09/10 03:32:58;;;;;;;14.77;12.13;;;15.20;99.90;;;;;;5093512;28;20124;-74
2022/09/10 03:35:23;;;;;;;16.70;12.02;;;15.20;99.90;;;;;;5088129;28;20458;-74
2022/09/10 03:37:49;;;;;;;18.48;12.07;;;15.20;99.90;;;;;;5055434;28;20036;-75
2022/09/10 03:40:15;;;;;;;16.70;12.68;;;15.20;99.90;;;;;;5086169;28;20085;-75
2022/09/10 03:42:41;;;;;;;16.33;13.65;;;15.20;99.90;;;;;;5087290;28;20167;-75
2022/09/10 03:45:08;;;;;;;15.38;12.65;;;15.20;99.90;;;;;;5084901;28;20102;-75
2022/09/10 03:47:36;;;;;;;14.65;12.68;;;15.20;99.90;;;;;;5054365;28;20044;-75
2022/09/10 03:50:04;;;;;;;18.38;12.70;;;15.20;99.90;;;;;;5084119;28;20088;-75
2022/09/10 03:52:29;;;;;;;21.50;14.50;;;15.20;99.90;;;;;;5083929;28;20040;-75
2022/09/10 03:54:55;;;;;;;18.98;14.15;;;15.20;99.90;;;;;;5087404;28;20696;-73
2022/09/10 03:57:22;;;;;;;21.10;14.02;;;15.20;99.90;;;;;;5084760;28;20123;-73
2022/09/10 03:59:48;;;;;;;21.15;13.68;;;15.20;99.90;;;;;;5070824;28;20044;-73
2022/09/10 04:02:15;;;;;;;22.05;13.77;;;15.20;99.90;;;;;;5054818;28;20753;-73
2022/09/10 04:04:41;;;;;;;18.95;14.27;;;15.20;99.90;;;;;;5098115;28;20044;-74
2022/09/10 04:07:09;;;;;;;18.27;13.95;;;15.20;99.90;;;;;;5092162;28;20043;-73
2022/09/10 04:09:34;;;;;;;17.20;15.02;;;15.20;99.90;;;;;;5096859;28;20044;-73
2022/09/10 04:12:01;;;;;;;22.10;15.15;;;15.20;99.90;;;;;;5095779;28;20344;-73
2022/09/10 04:14:27;;;;;;;21.30;15.67;;;15.20;99.90;;;;;;5093470;28;20087;-73
2022/09/10 04:16:53;;;;;;;20.65;16.05;;;15.20;99.90;;;;;;5083740;28;20076;-74
2022/09/10 04:19:18;;;;;;;23.00;15.98;;;15.30;99.90;;;;;;5084458;28;20032;-73
2022/09/10 04:21:44;;;;;;;23.67;16.50;;;15.20;99.90;;;;;;5088608;28;20047;-74
2022/09/10 04:24:13;;;;;;;20.98;16.85;;;15.20;99.90;;;;;;5086281;28;20569;-74
2022/09/10 04:26:38;;;;;;;21.27;16.10;;;15.30;99.90;;;;;;5088849;28;20064;-73
2022/09/10 04:29:04;;;;;;;21.85;16.52;;;15.20;99.90;;;;;;5093008;28;20513;-73
2022/09/10 04:31:29;;;;;;;23.65;17.20;;;15.30;99.90;;;;;;5090808;28;20036;-73
2022/09/10 04:33:55;;;;;;;24.20;18.20;;;15.30;99.90;;;;;;5090504;28;20042;-73
2022/09/10 04:36:21;;;;;;;25.58;17.42;;;15.20;99.90;;;;;;5087868;28;20044;-73
2022/09/10 04:38:47;;;;;;;21.40;17.30;;;15.30;99.90;;;;;;5090237;28;20063;-73
2022/09/10 04:41:14;;;;;;;22.17;18.55;;;15.30;99.90;;;;;;5072887;28;20093;-73
2022/09/10 04:43:40;;;;;;;26.13;18.38;;;15.20;99.90;;;;;;5086244;28;20028;-73
2022/09/10 04:46:07;;;;;;;28.58;19.50;;;15.30;99.90;;;;;;5072202;28;20048;-74
2022/09/10 04:48:33;;;;;;;26.00;19.67;;;15.20;99.90;;;;;;5083108;28;20101;-72
2022/09/10 04:50:58;;;;;;;32.55;20.40;;;15.30;99.90;;;;;;5051381;28;20051;-74
2022/09/10 04:53:26;;;;;;;23.88;19.60;;;15.30;99.90;;;;;;5084612;28;20032;-75
2022/09/10 04:55:53;;;;;;;30.20;19.23;;;15.30;99.90;;;;;;5086120;28;20048;-75
2022/09/10 04:58:18;;;;;;;29.65;20.38;;;15.30;99.90;;;;;;5086421;28;20047;-75
2022/09/10 05:00:44;;;;;;;27.95;19.27;;;15.30;99.90;;;;;;5087923;28;20032;-75
2022/09/10 05:03:11;;;;;;;30.58;20.50;;;15.30;99.90;;;;;;5083618;28;20147;-74
2022/09/10 05:05:36;;;;;;;26.38;19.63;;;15.30;99.90;;;;;;5071680;28;20048;-74
2022/09/10 05:08:04;;;;;;;29.65;19.38;;;15.30;99.90;;;;;;5084830;28;20619;-74
2022/09/10 05:10:30;;;;;;;29.10;20.77;;;15.30;99.90;;;;;;5070634;28;20446;-74
2022/09/10 05:12:56;;;;;;;29.90;20.52;;;15.30;99.90;;;;;;5096800;28;20027;-74
2022/09/10 05:15:22;;;;;;;29.63;20.92;;;15.30;99.90;;;;;;5090483;28;20538;-73
2022/09/10 05:17:48;;;;;;;28.80;20.38;;;15.40;99.90;;;;;;5083635;28;20056;-72
2022/09/10 05:20:14;;;;;;;25.90;18.33;;;15.30;99.90;;;;;;5071931;28;20486;-72
2022/09/10 05:22:41;;;;;;;25.92;19.52;;;15.30;99.90;;;;;;5071319;28;20042;-72
2022/09/10 05:25:06;;;;;;;24.50;19.57;;;15.40;99.90;;;;;;5085354;28;20094;-76
2022/09/10 05:27:32;;;;;;;24.40;19.60;;;15.40;99.90;;;;;;5088145;28;20052;-76
2022/09/10 05:29:58;;;;;;;24.95;18.75;;;15.40;99.90;;;;;;5092939;28;20040;-76
2022/09/10 05:32:24;;;;;;;24.10;19.38;;;15.40;99.90;;;;;;5083271;28;20048;-76
2022/09/10 05:34:50;;;;;;;24.73;19.10;;;15.40;99.90;;;;;;5069946;28;20043;-75
2022/09/10 05:37:17;;;;;;;29.30;19.38;;;15.40;99.90;;;;;;5086750;28;20094;-76
2022/09/10 05:39:45;;;;;;;27.98;19.70;;;15.50;99.90;;;;;;5074829;28;20156;-76
2022/09/10 05:42:11;;;;;;;29.17;18.15;;;15.40;99.90;;;;;;5091635;28;20047;-77
2022/09/10 05:44:37;;;;;;;23.65;19.13;;;15.40;99.90;;;;;;5071994;28;20036;-76
2022/09/10 05:47:02;;;;;;;28.90;19.90;;;15.40;99.90;;;;;;5086139;28;20496;-75
2022/09/10 05:49:29;;;;;;;24.83;19.38;;;15.50;99.90;;;;;;5085863;28;20150;-75
2022/09/10 05:51:55;;;;;;;28.42;19.45;;;15.50;99.90;;;;;;5088597;28;20044;-74
2022/09/10 05:54:20;;;;;;;26.75;19.20;;;15.50;99.90;;;;;;5086166;28;20434;-75
2022/09/10 05:56:46;;;;;;;34.40;20.83;;;15.60;99.90;;;;;;5089098;28;20032;-76
2022/09/10 05:59:12;;;;;;;25.13;19.70;;;15.50;99.90;;;;;;5083754;28;20159;-76
2022/09/10 06:01:37;;;;;;;25.13;19.40;;;15.60;99.90;;;;;;5082811;28;20391;-75
2022/09/10 06:04:03;;;;;;;38.88;20.73;;;15.60;99.90;;;;;;5090401;28;20039;-76
2022/09/10 06:06:29;;;;;;;29.05;19.88;;;15.60;99.90;;;;;;5088223;28;20028;-77
2022/09/10 06:08:55;;;;;;;27.77;19.38;;;15.60;99.90;;;;;;5088897;28;20047;-76
2022/09/10 06:11:21;;;;;;;24.95;18.65;;;15.60;99.90;;;;;;5084773;28;20359;-76
2022/09/10 06:13:48;;;;;;;27.38;18.65;;;15.70;99.90;;;;;;5055479;28;20058;-76
2022/09/10 06:16:14;;;;;;;32.40;20.10;;;15.70;99.90;;;;;;5071209;28;20526;-74
2022/09/10 06:18:41;;;;;;;29.95;20.40;;;15.60;99.90;;;;;;5053792;28;20173;-77
2022/09/10 06:21:17;;;;;;;28.90;18.63;;;15.70;99.90;;;;;;5086676;28;20072;-75
2022/09/10 06:23:44;;;;;;;23.93;18.97;;;15.80;99.90;;;;;;5088690;28;20467;-75
2022/09/10 06:26:13;;;;;;;25.85;18.13;;;15.70;99.90;;;;;;5091880;28;20036;-75
2022/09/10 06:28:40;;;;;;;23.77;18.90;;;15.80;99.90;;;;;;5089880;28;20127;-75
2022/09/10 06:31:06;;;;;;;21.35;17.48;;;15.90;99.90;;;;;;5093600;28;20036;-75
2022/09/10 06:33:33;;;;;;;22.73;17.05;;;15.90;99.90;;;;;;5088788;28;21677;-77
2022/09/10 06:36:00;;;;;;;24.42;17.58;;;16.00;99.90;;;;;;5077309;28;20040;-73
2022/09/10 06:38:32;;;;;;;20.30;16.70;;;16.00;99.90;;;;;;5073775;28;20139;-73
2022/09/10 06:40:59;;;;;;;21.58;17.25;;;;;;;;;;5071375;28;20048;-74
2022/09/10 06:43:26;;;;;;;24.02;18.33;;;16.20;99.90;;;;;;5067097;28;20062;-73
2022/09/10 06:45:54;;;;;;;23.33;17.70;;;16.20;99.90;;;;;;5082453;28;20055;-74
2022/09/10 06:48:26;;;;;;;24.42;18.30;;;16.30;99.90;;;;;;5085335;28;20032;-72
2022/09/10 06:50:57;;;;;;;24.90;17.23;;;16.30;99.90;;;;;;5083761;28;20035;-73
2022/09/10 06:53:24;;;;;;;22.08;17.90;;;16.40;99.90;;;;;;5071685;28;20145;-73
2022/09/10 06:55:51;;;;;;;25.83;18.10;;;16.40;99.90;;;;;;5063774;28;20128;-73
2022/09/10 06:58:23;;;;;;;19.00;16.55;;;16.40;99.90;;;;;;5065763;28;20737;-73
2022/09/10 07:00:56;;;;;;;22.30;18.05;;;16.50;99.90;;;;;;5063829;28;20070;-73
2022/09/10 07:03:21;;;;;;;20.77;16.33;;;16.50;99.90;;;;;;5062983;28;20040;-73
2022/09/10 07:05:48;;;;;;;22.75;16.95;;;16.60;99.90;;;;;;5064053;28;20833;-73
2022/09/10 07:08:16;;;;;;;23.95;16.75;;;16.50;99.90;;;;;;5069539;28;20456;-72
2022/09/10 07:10:43;;;;;;;20.30;16.38;;;16.50;99.90;;;;;;5074699;28;20045;-72
2022/09/10 07:13:11;;;;;;;20.23;16.83;;;16.50;99.90;;;;;;5069742;28;20044;-69
2022/09/10 07:15:48;;;;;;;20.40;16.13;;;16.50;99.90;;;;;;5064493;28;20048;-72
2022/09/10 07:18:13;;;;;;;21.55;15.93;;;16.50;99.90;;;;;;5075066;28;20040;-72
2022/09/10 07:20:42;;;;;;;22.52;16.20;;;16.60;99.90;;;;;;5071794;28;20086;-73
2022/09/10 07:23:10;;;;;;;20.00;16.10;;;16.70;99.90;;;;;;5069100;28;20061;-73
2022/09/10 07:25:36;;;;;;;19.13;15.05;;;16.80;99.90;;;;;;5069721;28;20467;-72
2022/09/10 07:28:02;;;;;;;16.63;14.68;;;16.90;99.90;;;;;;5072249;28;20052;-71
2022/09/10 07:30:29;;;;;;;19.70;15.05;;;17.10;99.90;;;;;;5068968;28;20051;-70
2022/09/10 07:32:55;;;;;;;16.97;14.57;;;17.00;99.90;;;;;;5067350;28;20041;-70
2022/09/10 07:35:21;;;;;;;18.58;14.32;;;17.20;99.90;;;;;;5073762;28;20043;-70
2022/09/10 07:37:47;;;;;;;17.33;14.45;;;17.30;99.90;;;;;;5074554;28;20155;-69
2022/09/10 07:40:13;;;;;;;17.85;13.48;;;17.40;99.90;;;;;;5065856;28;20044;-71
2022/09/10 07:42:39;;;;;;;16.15;13.85;;;17.50;99.90;;;;;;5078062;28;20071;-70
2022/09/10 07:45:06;;;;;;;17.20;13.93;;;17.50;99.90;;;;;;5092739;28;20028;-70
2022/09/10 07:47:32;;;;;;;16.30;13.20;;;17.50;99.90;;;;;;5091632;28;20044;-72
2022/09/10 07:49:59;;;;;;;16.38;12.85;;;17.60;99.90;;;;;;5091524;28;20055;-72
2022/09/10 07:52:24;;;;;;;14.65;13.15;;;17.60;99.90;;;;;;5085845;28;20032;-71
2022/09/10 07:54:50;;;;;;;17.08;14.40;;;17.70;99.90;;;;;;5087867;28;20432;-71
2022/09/10 07:57:16;;;;;;;16.42;13.50;;;17.80;99.90;;;;;;5069139;28;20179;-71
2022/09/10 07:59:42;;;;;;;16.73;12.35;;;18.00;99.90;;;;;;5087498;28;20070;-72
2022/09/10 08:02:14;;;;;;;18.10;13.75;;;18.10;99.90;;;;;;5087625;28;20112;-71
2022/09/10 08:04:39;;;;;;;14.20;12.75;;;18.20;99.90;;;;;;5086534;28;20091;-71
2022/09/10 08:07:05;;;;;;;14.48;12.55;;;18.20;99.90;;;;;;5090887;28;20462;-71
2022/09/10 08:09:32;;;;;;;16.00;12.88;;;18.10;99.90;;;;;;5089726;28;20422;-72
2022/09/10 08:11:58;;;;;;;14.85;12.10;;;18.00;99.90;;;;;;5079443;28;20071;-70
2022/09/10 08:14:24;;;;;;;15.45;11.90;;;18.00;99.90;;;;;;5091222;28;20447;-71
2022/09/10 08:16:49;;;;;;;14.52;12.70;;;17.90;99.90;;;;;;5092779;28;20114;-71
2022/09/10 08:19:16;;;;;;;13.63;12.02;;;17.80;99.90;;;;;;5090476;28;20036;-71
2022/09/10 08:21:44;;;;;;;17.63;12.23;;;17.80;99.90;;;;;;5090553;28;20144;-71
2022/09/10 08:24:10;;;;;;;14.35;11.43;;;17.80;99.90;;;;;;5086521;28;20036;-71
2022/09/10 08:26:35;;;;;;;14.57;12.00;;;17.90;99.90;;;;;;5088576;28;20096;-71
2022/09/10 08:29:01;;;;;;;13.25;11.85;;;17.90;99.90;;;;;;5077569;28;20036;-71
2022/09/10 08:31:27;;;;;;;14.07;12.70;;;17.90;99.90;;;;;;5089860;28;20052;-72
2022/09/10 08:33:55;;;;;;;12.75;10.95;;;18.00;99.90;;;;;;5071458;28;20040;-71
2022/09/10 08:36:22;;;;;;;15.40;12.20;;;18.00;99.90;;;;;;5090868;28;20039;-71
2022/09/10 08:38:49;;;;;;;16.08;11.82;;;18.00;99.90;;;;;;5069420;28;20043;-71
2022/09/10 08:41:40;;;;;;;11.93;10.77;;;18.00;99.90;;;;;;5089949;28;20044;-72
2022/09/10 08:44:30;;;;;;;12.05;10.68;;;18.10;99.90;;;;;;5086364;28;20040;-71
2022/09/10 08:47:03;;;;;;;12.57;10.95;;;18.20;99.90;;;;;;5089386;28;20050;-71
2022/09/10 08:49:32;;;;;;;10.90;9.80;;;18.60;99.90;;;;;;5093670;28;20101;-71
2022/09/10 08:52:04;;;;;;;10.80;9.80;;;18.80;99.90;;;;;;5088367;28;20135;-71
2022/09/10 08:54:36;;;;;;;12.30;10.75;;;19.10;99.90;;;;;;5087484;28;20048;-71
2022/09/10 08:57:05;;;;;;;10.15;8.98;;;19.30;99.90;;;;;;5081152;28;20036;-71
2022/09/10 08:59:41;;;;;;;3.20;1.98;;;19.40;99.90;;;;;;5089697;28;20044;-72
2022/09/10 09:02:30;;;;;;;2.50;1.63;;;19.40;99.90;;;;;;5093320;28;20036;-71
2022/09/10 09:05:10;;;;;;;2.72;1.58;;;19.50;99.90;;;;;;5088282;28;20651;-71
2022/09/10 09:07:38;;;;;;;1.40;1.30;;;19.50;99.90;;;;;;5070276;28;20067;-71
2022/09/10 09:10:26;;;;;;;1.67;1.40;;;19.40;99.90;;;;;;5092384;28;20133;-71
2022/09/10 09:13:26;;;;;;;4.15;1.90;;;19.40;99.90;;;;;;5086459;28;20147;-71
2022/09/10 09:15:51;;;;;;;2.38;2.10;;;19.50;99.90;;;;;;5089658;28;20383;-71
2022/09/10 09:18:28;;;;;;;3.17;2.40;;;19.40;99.90;;;;;;5090745;28;20047;-71
2022/09/10 09:20:59;;;;;;;1.90;1.80;;;19.50;99.90;;;;;;5073694;28;20056;-71
2022/09/10 09:23:50;;;;;;;3.10;2.65;;;19.70;99.90;;;;;;5088365;28;20486;-71
2022/09/10 09:26:18;;;;;;;2.95;2.42;;;19.70;99.90;;;;;;5077350;28;20098;-71
2022/09/10 09:28:55;;;;;;;2.83;2.20;;;19.80;99.90;;;;;;5089551;28;20498;-73
2022/09/10 09:31:26;;;;;;;3.05;2.60;;;20.10;99.90;;;;;;5092593;28;20032;-69
2022/09/10 09:33:57;;;;;;;4.38;2.67;;;20.20;99.90;;;;;;5074613;28;20403;-71
2022/09/10 09:36:29;;;;;;;9.60;3.20;;;20.50;99.90;;;;;;5088589;28;20627;-72
2022/09/10 09:38:55;;;;;;;3.45;3.15;;;20.70;99.90;;;;;;5088642;28;20043;-71
2022/09/10 09:41:30;;;;;;;4.30;3.20;;;20.80;99.90;;;;;;5085741;28;20039;-71
2022/09/10 09:44:02;;;;;;;3.67;2.95;;;20.80;99.90;;;;;;5084404;28;20040;-71
2022/09/10 09:46:27;;;;;;;3.72;3.25;;;20.80;99.90;;;;;;5090781;28;20448;-71
2022/09/10 09:48:59;;;;;;;4.85;2.88;;;20.50;99.90;;;;;;5093683;28;20177;-71
2022/09/10 09:51:29;;;;;;;4.53;4.13;;;20.60;99.90;;;;;;5088609;28;20135;-71
2022/09/10 09:53:59;;;;;;;4.72;4.00;;;20.60;99.90;;;;;;5092327;28;20118;-72
2022/09/10 09:56:30;;;;;;;5.00;4.45;;;20.50;99.90;;;;;;5086363;28;20044;-71
2022/09/10 09:59:10;;;;;;;6.60;4.40;;;20.40;99.90;;;;;;5074513;28;20509;-71
2022/09/10 10:01:39;;;;;;;7.85;4.47;;;20.50;99.90;;;;;;5091288;28;20041;-71
2022/09/10 10:04:18;;;;;;;5.60;4.18;;;20.50;99.90;;;;;;5073484;28;20047;-71
2022/09/10 10:06:46;;;;;;;5.43;4.40;;;20.80;99.90;;;;;;5092295;28;20056;-71
2022/09/10 10:09:20;;;;;;;5.10;4.53;;;20.80;99.90;;;;;;5090394;28;20111;-71
2022/09/10 10:11:56;;;;;;;6.18;5.55;;;20.50;99.90;;;;;;5092673;28;20380;-72
2022/09/10 10:14:37;;;;;;;8.18;4.90;;;20.40;99.90;;;;;;5090153;28;20093;-71
2022/09/10 10:17:31;;;;;;;6.10;4.90;;;20.40;99.90;;;;;;5080880;28;20121;-72
2022/09/10 10:20:00;;;;;;;7.18;5.53;;;20.50;99.90;;;;;;5081340;28;20750;-71
2022/09/10 10:22:29;;;;;;;6.05;4.90;;;20.30;99.90;;;;;;5091979;28;20071;-72
2022/09/10 10:24:55;;;;;;;6.25;4.57;;;20.40;99.90;;;;;;5073164;28;20044;-71
2022/09/10 10:27:26;;;;;;;6.20;5.60;;;20.50;99.90;;;;;;5089898;28;20069;-71
2022/09/10 10:29:58;;;;;;;7.53;6.65;;;20.50;99.90;;;;;;5092724;28;20054;-71
2022/09/10 10:32:36;;;;;;;7.40;6.13;;;20.40;99.90;;;;;;5093037;28;20459;-71
2022/09/10 10:35:12;;;;;;;7.45;5.93;;;20.50;99.90;;;;;;5091511;28;20570;-71
2022/09/10 10:37:46;;;;;;;7.55;6.35;;;20.60;99.90;;;;;;5092215;28;20374;-71
2022/09/10 10:40:25;;;;;;;6.88;5.55;;;20.90;99.90;;;;;;5083082;28;20079;-70
2022/09/10 10:43:21;;;;;;;7.28;6.55;;;21.00;99.90;;;;;;5081363;28;20052;-71
2022/09/10 10:46:03;;;;;;;8.20;6.55;;;21.00;99.90;;;;;;5082279;28;20086;-71
2022/09/10 10:48:42;;;;;;;7.28;6.57;;;21.00;99.90;;;;;;5084606;28;20041;-71
2022/09/10 10:51:17;;;;;;;7.80;6.50;;;21.00;99.90;;;;;;5085984;28;20540;-72
2022/09/10 10:53:55;;;;;;;7.50;6.80;;;21.20;99.90;;;;;;5076039;28;20119;-72
2022/09/10 10:56:41;;;;;;;6.50;5.90;;;21.10;99.90;;;;;;5087591;28;20044;-72
2022/09/10 10:59:23;;;;;;;5.57;4.30;;;21.30;99.90;;;;;;5053968;28;20040;-72
2022/09/10 11:02:26;;;;;;;4.97;4.43;;;21.20;99.90;;;;;;5089278;28;20047;-71
2022/09/10 11:04:53;;;;;;;4.57;4.10;;;21.40;99.90;;;;;;4979948;28;20098;-71
2022/09/10 11:07:26;;;;;;;4.93;3.95;;;21.30;99.90;;;;;;4981301;28;20054;-74
2022/09/10 11:09:57;;;;;;;5.00;3.55;;;21.30;99.90;;;;;;4987271;28;20095;-74
2022/09/10 11:12:33;;;;;;;3.42;2.80;;;21.30;99.90;;;;;;4994879;28;20053;-74
2022/09/10 11:15:29;;;;;;;3.33;3.03;;;21.40;99.90;;;;;;4994825;28;20062;-73
2022/09/10 11:18:26;;;;;;;3.90;3.35;;;21.50;99.90;;;;;;4993149;28;20047;-74
2022/09/10 11:20:54;;;;;;;;;;;21.50;99.90;;;;;;4993131;28;20059;-73
2022/09/10 11:24:04;;;;;;;4.38;2.55;;;21.80;99.90;;;;;;4995265;28;19925;-74
2022/09/10 11:26:49;;;;;;;4.47;3.40;;;21.70;99.90;;;;;;4988344;28;20046;-73
2022/09/10 11:29:24;;;;;;;4.15;3.30;;;21.60;99.90;;;;;;4998485;28;20046;-74
2022/09/10 11:32:17;;;;;;;3.20;2.90;;;21.60;99.90;;;;;;4996085;28;20043;-74
2022/09/10 11:35:05;;;;;;;4.30;3.45;;;22.00;99.90;;;;;;4979115;28;20881;-73
2022/09/10 11:37:31;;;;;;;4.85;3.75;;;22.10;99.90;;;;;;4995326;28;20046;-74
2022/09/10 11:40:01;;;;;;;4.60;3.72;;;22.20;99.90;;;;;;5028059;28;20048;-74
2022/09/10 11:42:39;;;;;;;4.95;3.97;;;22.30;99.90;;;;;;5094163;28;21352;-74
2022/09/10 11:45:27;;;;;;;3.63;3.13;;;22.30;99.90;;;;;;5094669;28;20063;-73
2022/09/10 11:48:19;;;;;;;3.83;3.53;;;22.20;99.90;;;;;;5095187;28;20051;-73
2022/09/10 11:50:54;;;;;;;4.80;4.30;;;21.70;99.90;;;;;;5084225;28;20047;-74
2022/09/10 11:53:23;;;;;;;7.00;4.38;;;21.50;99.90;;;;;;5095741;28;20454;-74
2022/09/10 11:55:58;;;;;;;6.45;4.70;;;21.30;99.90;;;;;;5095445;28;20100;-74
2022/09/10 11:58:33;;;;;;;7.35;4.25;;;21.20;99.90;;;;;;5092302;28;20074;-73
2022/09/10 12:01:19;;;;;;;5.68;4.53;;;21.40;99.90;;;;;;5096351;28;20205;-73
2022/09/10 12:04:04;;;;;;;5.00;4.50;;;21.50;99.90;;;;;;5092950;28;20127;-74
2022/09/10 12:06:48;;;;;;;5.38;3.97;;;21.20;99.90;;;;;;5076508;28;20421;-74
2022/09/10 12:09:28;;;;;;;4.90;4.07;;;21.40;99.90;;;;;;5078811;28;20048;-74
2022/09/10 12:12:13;;;;;;;4.70;4.13;;;21.50;99.90;;;;;;5083565;28;20139;-69
2022/09/10 12:14:39;;;;;;;4.95;4.43;;;21.50;99.90;;;;;;5098517;28;20036;-74
2022/09/10 12:17:37;;;;;;;6.82;4.10;;;21.40;99.90;;;;;;5092505;28;20040;-74
2022/09/10 12:20:05;;;;;;;5.32;4.85;;;21.30;99.90;;;;;;5065914;28;20062;-73
2022/09/10 12:22:38;;;;;;;7.68;4.30;;;21.40;99.90;;;;;;5086562;28;20102;-74
2022/09/10 12:25:05;;;;;;;6.85;4.72;;;21.40;99.90;;;;;;5090945;28;20052;-75
2022/09/10 12:27:52;;;;;;;5.45;4.25;;;21.50;99.90;;;;;;5093975;28;20058;-71
2022/09/10 12:30:26;;;;;;;5.28;4.63;;;21.90;99.90;;;;;;5082233;28;20131;-72
2022/09/10 12:32:53;;;;;;;4.85;4.20;;;21.80;99.90;;;;;;5088446;28;20067;-71
2022/09/10 12:35:33;;;;;;;5.37;4.10;;;22.00;99.90;;;;;;5083946;28;20433;-70
2022/09/10 12:38:38;;;;;;;3.92;3.60;;;21.60;99.90;;;;;;5085216;28;20337;-72
2022/09/10 12:41:28;;;;;;;9.63;4.10;;;21.70;99.90;;;;;;5092645;28;20378;-70
2022/09/10 12:43:55;;;;;;;3.80;3.42;;;21.90;99.90;;;;;;5062780;28;20052;-71
2022/09/10 12:46:24;;;;;;;5.10;3.97;;;22.10;99.90;;;;;;5089305;28;20041;-69
2022/09/10 12:48:54;;;;;;;4.85;3.90;;;22.10;99.90;;;;;;5076106;28;20086;-70
2022/09/10 12:51:30;;;;;;;5.05;3.70;;;22.00;99.90;;;;;;5094054;28;20109;-71
2022/09/10 12:53:59;;;;;;;4.05;3.60;;;22.00;99.90;;;;;;5096246;28;20143;-71